Terminal Aerodrome Forecast
Issued by NWS Billings, MT

Home | Current Version | Previous Version | Text Only | Print | Product List | Glossary On
Versions: 1 2 3 4 5 6 7 8 9 10 11 12 13 14 15 16 17
000
FTUS45 KBYZ 311456 AAA
TAFMLS
TAF AMD
KMLS 311456Z 3115/0112 13018G28KT P6SM FEW010 SCT100
     FM311700 13018G28KT P6SM FEW010 SCT100
     FM010000 12008KT P6SM BKN250=

USA.gov is the U.S. government's official web portal to all federal, state and local government web resources and services.